sensor_id;sensor_type;location;lat;lon;timestamp;pressure;altitude;pressure_sealevel;temperature;humidity
50774;BME280;36745;48.544;8.918;2023-09-19T00:00:00;97048.75;;;16.17;100.00
50774;BME280;36745;48.544;8.918;2023-09-19T00:03:20;97048.75;;;16.17;100.00
50774;BME280;36745;48.544;8.918;2023-09-19T00:06:42;97051.81;;;16.19;100.00
50774;BME280;36745;48.544;8.918;2023-09-19T00:10:04;97044.97;;;16.20;100.00
50774;BME280;36745;48.544;8.918;2023-09-19T00:13:24;97034.84;;;16.17;100.00
50774;BME280;36745;48.544;8.918;2023-09-19T00:16:44;97047.97;;;16.17;100.00
50774;BME280;36745;48.544;8.918;2023-09-19T00:20:06;97048.44;;;16.15;100.00
50774;BME280;36745;48.544;8.918;2023-09-19T00:23:32;97059.69;;;16.06;100.00
50774;BME280;36745;48.544;8.918;2023-09-19T00:26:52;97045.50;;;16.04;100.00
50774;BME280;36745;48.544;8.918;2023-09-19T00:30:15;97044.00;;;16.03;100.00
50774;BME280;36745;48.544;8.918;2023-09-19T00:33:40;97053.84;;;16.04;100.00
50774;BME280;36745;48.544;8.918;2023-09-19T00:37:00;97046.09;;;16.08;100.00
50774;BME280;36745;48.544;8.918;2023-09-19T00:40:20;97055.47;;;16.11;100.00
50774;BME280;36745;48.544;8.918;2023-09-19T00:43:40;97057.75;;;16.12;100.00
50774;BME280;36745;48.544;8.918;2023-09-19T00:47:00;97060.00;;;16.08;100.00
50774;BME280;36745;48.544;8.918;2023-09-19T00:50:24;97052.59;;;16.05;100.00
50774;BME280;36745;48.544;8.918;2023-09-19T00:53:46;97062.56;;;16.12;100.00
50774;BME280;36745;48.544;8.918;2023-09-19T00:57:06;97059.50;;;16.10;100.00
50774;BME280;36745;48.544;8.918;2023-09-19T01:00:28;97054.69;;;16.10;100.00
50774;BME280;36745;48.544;8.918;2023-09-19T01:03:48;97051.66;;;16.08;100.00
50774;BME280;36745;48.544;8.918;2023-09-19T01:07:08;97048.56;;;16.06;100.00
50774;BME280;36745;48.544;8.918;2023-09-19T01:10:28;97055.13;;;16.03;100.00
50774;BME280;36745;48.544;8.918;2023-09-19T01:14:22;97053.00;;;15.98;100.00
50774;BME280;36745;48.544;8.918;2023-09-19T01:17:50;97055.50;;;15.96;100.00
50774;BME280;36745;48.544;8.918;2023-09-19T01:21:31;97063.56;;;15.94;100.00
50774;BME280;36745;48.544;8.918;2023-09-19T01:28:30;97067.97;;;15.86;100.00
50774;BME280;36745;48.544;8.918;2023-09-19T01:31:59;97073.53;;;15.86;100.00
50774;BME280;36745;48.544;8.918;2023-09-19T01:35:22;97072.78;;;15.85;100.00
50774;BME280;36745;48.544;8.918;2023-09-19T01:38:42;97085.44;;;15.86;100.00
50774;BME280;36745;48.544;8.918;2023-09-19T01:42:09;97088.69;;;15.85;100.00
50774;BME280;36745;48.544;8.918;2023-09-19T01:49:42;97085.59;;;15.83;100.00
50774;BME280;36745;48.544;8.918;2023-09-19T01:53:13;97088.88;;;15.81;100.00
50774;BME280;36745;48.544;8.918;2023-09-19T01:56:43;97088.28;;;15.77;100.00
50774;BME280;36745;48.544;8.918;2023-09-19T02:00:10;97097.31;;;15.72;100.00
50774;BME280;36745;48.544;8.918;2023-09-19T02:03:31;97106.91;;;15.57;100.00
50774;BME280;36745;48.544;8.918;2023-09-19T02:06:53;97104.19;;;15.47;100.00
50774;BME280;36745;48.544;8.918;2023-09-19T02:10:13;97096.53;;;15.42;100.00
50774;BME280;36745;48.544;8.918;2023-09-19T02:13:33;97099.47;;;15.39;100.00
50774;BME280;36745;48.544;8.918;2023-09-19T02:16:53;97111.84;;;15.38;100.00
50774;BME280;36745;48.544;8.918;2023-09-19T02:20:13;97100.63;;;15.32;100.00
50774;BME280;36745;48.544;8.918;2023-09-19T02:23:36;97093.25;;;15.29;100.00
50774;BME280;36745;48.544;8.918;2023-09-19T02:26:56;97097.25;;;15.28;100.00
50774;BME280;36745;48.544;8.918;2023-09-19T02:30:16;97099.19;;;15.22;100.00
50774;BME280;36745;48.544;8.918;2023-09-19T02:33:37;97105.22;;;15.21;100.00
50774;BME280;36745;48.544;8.918;2023-09-19T02:36:57;97111.22;;;15.19;100.00
50774;BME280;36745;48.544;8.918;2023-09-19T02:40:16;97105.09;;;15.15;100.00
50774;BME280;36745;48.544;8.918;2023-09-19T02:43:39;97110.66;;;15.15;100.00
50774;BME280;36745;48.544;8.918;2023-09-19T02:46:59;97102.03;;;15.13;100.00
50774;BME280;36745;48.544;8.918;2023-09-19T02:50:18;97111.22;;;15.19;100.00
50774;BME280;36745;48.544;8.918;2023-09-19T02:53:39;97112.41;;;15.27;100.00
50774;BME280;36745;48.544;8.918;2023-09-19T02:56:59;97115.47;;;15.29;100.00
50774;BME280;36745;48.544;8.918;2023-09-19T03:00:20;97118.91;;;15.39;100.00
50774;BME280;36745;48.544;8.918;2023-09-19T03:03:40;97122.88;;;15.47;100.00
50774;BME280;36745;48.544;8.918;2023-09-19T03:07:00;97120.53;;;15.55;100.00
50774;BME280;36745;48.544;8.918;2023-09-19T03:10:20;97116.31;;;15.59;100.00
50774;BME280;36745;48.544;8.918;2023-09-19T03:13:40;97107.47;;;15.61;100.00
50774;BME280;36745;48.544;8.918;2023-09-19T03:17:01;97127.22;;;15.63;100.00
50774;BME280;36745;48.544;8.918;2023-09-19T03:20:24;97134.31;;;15.64;100.00
50774;BME280;36745;48.544;8.918;2023-09-19T03:23:47;97138.91;;;15.67;100.00
50774;BME280;36745;48.544;8.918;2023-09-19T03:27:11;97143.50;;;15.70;100.00
50774;BME280;36745;48.544;8.918;2023-09-19T03:30:33;97140.53;;;15.73;100.00
50774;BME280;36745;48.544;8.918;2023-09-19T03:33:55;97141.88;;;15.78;100.00
50774;BME280;36745;48.544;8.918;2023-09-19T03:37:15;97128.94;;;15.75;100.00
50774;BME280;36745;48.544;8.918;2023-09-19T03:40:35;97133.25;;;15.76;100.00
50774;BME280;36745;48.544;8.918;2023-09-19T03:43:57;97140.63;;;15.79;100.00
50774;BME280;36745;48.544;8.918;2023-09-19T03:47:17;97139.66;;;15.82;100.00
50774;BME280;36745;48.544;8.918;2023-09-19T03:50:37;97131.53;;;15.78;100.00
50774;BME280;36745;48.544;8.918;2023-09-19T03:53:57;97126.94;;;15.75;100.00
50774;BME280;36745;48.544;8.918;2023-09-19T03:57:17;97125.59;;;15.71;100.00
50774;BME280;36745;48.544;8.918;2023-09-19T04:00:40;97129.31;;;15.68;100.00
50774;BME280;36745;48.544;8.918;2023-09-19T04:04:00;97128.38;;;15.71;100.00
50774;BME280;36745;48.544;8.918;2023-09-19T04:07:27;97132.66;;;15.72;100.00
50774;BME280;36745;48.544;8.918;2023-09-19T04:10:48;97131.44;;;15.73;100.00
50774;BME280;36745;48.544;8.918;2023-09-19T04:14:08;97130.66;;;15.72;100.00
50774;BME280;36745;48.544;8.918;2023-09-19T04:17:28;97137.75;;;15.73;100.00
50774;BME280;36745;48.544;8.918;2023-09-19T04:20:49;97134.69;;;15.71;100.00
50774;BME280;36745;48.544;8.918;2023-09-19T04:24:09;97134.97;;;15.73;100.00
50774;BME280;36745;48.544;8.918;2023-09-19T04:27:29;97136.72;;;15.71;100.00
50774;BME280;36745;48.544;8.918;2023-09-19T04:30:49;97139.97;;;15.69;100.00
50774;BME280;36745;48.544;8.918;2023-09-19T04:34:08;97136.63;;;15.65;100.00
50774;BME280;36745;48.544;8.918;2023-09-19T04:37:29;97140.81;;;15.61;100.00
50774;BME280;36745;48.544;8.918;2023-09-19T04:40:49;97145.53;;;15.55;100.00
50774;BME280;36745;48.544;8.918;2023-09-19T04:44:09;97143.31;;;15.59;100.00
50774;BME280;36745;48.544;8.918;2023-09-19T04:47:28;97152.91;;;15.58;100.00
50774;BME280;36745;48.544;8.918;2023-09-19T04:50:48;97156.13;;;15.56;100.00
50774;BME280;36745;48.544;8.918;2023-09-19T04:54:08;97152.13;;;15.57;100.00
50774;BME280;36745;48.544;8.918;2023-09-19T04:57:28;97152.59;;;15.56;100.00
50774;BME280;36745;48.544;8.918;2023-09-19T05:00:48;97157.22;;;15.59;100.00
50774;BME280;36745;48.544;8.918;2023-09-19T05:04:10;97159.03;;;15.62;100.00
50774;BME280;36745;48.544;8.918;2023-09-19T05:07:31;97160.09;;;15.64;100.00
50774;BME280;36745;48.544;8.918;2023-09-19T05:10:51;97163.63;;;15.65;100.00
50774;BME280;36745;48.544;8.918;2023-09-19T05:14:11;97170.72;;;15.66;100.00
50774;BME280;36745;48.544;8.918;2023-09-19T05:17:30;97176.25;;;15.66;100.00
50774;BME280;36745;48.544;8.918;2023-09-19T05:20:50;97180.31;;;15.65;100.00
50774;BME280;36745;48.544;8.918;2023-09-19T05:24:10;97179.81;;;15.66;100.00
50774;BME280;36745;48.544;8.918;2023-09-19T05:27:32;97179.81;;;15.66;100.00
50774;BME280;36745;48.544;8.918;2023-09-19T05:30:53;97183.66;;;15.69;100.00
50774;BME280;36745;48.544;8.918;2023-09-19T05:34:13;97193.34;;;15.73;100.00
50774;BME280;36745;48.544;8.918;2023-09-19T05:37:33;97196.41;;;15.75;100.00
50774;BME280;36745;48.544;8.918;2023-09-19T05:40:53;97199.19;;;15.75;100.00
50774;BME280;36745;48.544;8.918;2023-09-19T05:44:13;97208.09;;;15.79;100.00
50774;BME280;36745;48.544;8.918;2023-09-19T05:47:33;97208.78;;;15.89;100.00
50774;BME280;36745;48.544;8.918;2023-09-19T05:50:53;97216.47;;;15.94;100.00
50774;BME280;36745;48.544;8.918;2023-09-19T05:54:13;97231.44;;;15.97;100.00
50774;BME280;36745;48.544;8.918;2023-09-19T05:57:35;97242.81;;;15.99;100.00
50774;BME280;36745;48.544;8.918;2023-09-19T06:00:55;97238.03;;;15.99;100.00
50774;BME280;36745;48.544;8.918;2023-09-19T06:04:17;97235.66;;;16.07;100.00
50774;BME280;36745;48.544;8.918;2023-09-19T06:07:37;97245.34;;;16.11;100.00
50774;BME280;36745;48.544;8.918;2023-09-19T06:10:56;97253.97;;;16.13;100.00
50774;BME280;36745;48.544;8.918;2023-09-19T06:14:16;97250.41;;;16.13;100.00
50774;BME280;36745;48.544;8.918;2023-09-19T06:17:37;97272.56;;;16.07;100.00
50774;BME280;36745;48.544;8.918;2023-09-19T06:20:59;97267.00;;;16.07;100.00
50774;BME280;36745;48.544;8.918;2023-09-19T06:24:19;97265.75;;;16.08;100.00
50774;BME280;36745;48.544;8.918;2023-09-19T06:27:40;97270.81;;;16.10;100.00
50774;BME280;36745;48.544;8.918;2023-09-19T06:31:03;97273.50;;;16.04;100.00
50774;BME280;36745;48.544;8.918;2023-09-19T06:34:23;97283.50;;;16.11;100.00
50774;BME280;36745;48.544;8.918;2023-09-19T06:37:45;97278.50;;;16.15;100.00
50774;BME280;36745;48.544;8.918;2023-09-19T06:41:05;97270.25;;;16.20;100.00
50774;BME280;36745;48.544;8.918;2023-09-19T06:44:25;97267.97;;;16.19;100.00
50774;BME280;36745;48.544;8.918;2023-09-19T06:47:45;97280.34;;;16.32;100.00
50774;BME280;36745;48.544;8.918;2023-09-19T06:51:08;97284.28;;;17.19;100.00
50774;BME280;36745;48.544;8.918;2023-09-19T06:54:29;97280.69;;;17.74;100.00
50774;BME280;36745;48.544;8.918;2023-09-19T06:57:54;97290.34;;;18.25;100.00
50774;BME280;36745;48.544;8.918;2023-09-19T07:01:13;97292.28;;;18.96;100.00
50774;BME280;36745;48.544;8.918;2023-09-19T07:04:33;97289.22;;;19.31;100.00
50774;BME280;36745;48.544;8.918;2023-09-19T07:07:53;97291.50;;;19.75;100.00
50774;BME280;36745;48.544;8.918;2023-09-19T07:11:14;97296.19;;;20.17;100.00
50774;BME280;36745;48.544;8.918;2023-09-19T07:14:35;97284.69;;;19.98;100.00
50774;BME280;36745;48.544;8.918;2023-09-19T07:17:55;97294.34;;;19.86;100.00
50774;BME280;36745;48.544;8.918;2023-09-19T07:21:15;97293.41;;;20.28;100.00
50774;BME280;36745;48.544;8.918;2023-09-19T07:24:35;97297.81;;;20.74;100.00
50774;BME280;36745;48.544;8.918;2023-09-19T07:27:57;97300.63;;;21.02;100.00
50774;BME280;36745;48.544;8.918;2023-09-19T07:31:19;97307.75;;;20.86;100.00
50774;BME280;36745;48.544;8.918;2023-09-19T07:34:39;97300.31;;;21.39;100.00
50774;BME280;36745;48.544;8.918;2023-09-19T07:38:00;97305.91;;;21.50;100.00
50774;BME280;36745;48.544;8.918;2023-09-19T07:41:22;97323.78;;;21.13;98.53
50774;BME280;36745;48.544;8.918;2023-09-19T07:44:42;97326.22;;;20.22;94.74
50774;BME280;36745;48.544;8.918;2023-09-19T07:48:02;97333.75;;;20.86;96.91
50774;BME280;36745;48.544;8.918;2023-09-19T07:51:23;97326.78;;;22.34;97.38
50774;BME280;36745;48.544;8.918;2023-09-19T07:54:43;97332.34;;;22.81;92.99
50774;BME280;36745;48.544;8.918;2023-09-19T07:58:04;97329.88;;;21.51;88.48
50774;BME280;36745;48.544;8.918;2023-09-19T08:01:25;97331.41;;;20.51;87.77
50774;BME280;36745;48.544;8.918;2023-09-19T08:04:46;97340.44;;;20.02;88.75
50774;BME280;36745;48.544;8.918;2023-09-19T08:08:06;97351.31;;;19.94;88.15
50774;BME280;36745;48.544;8.918;2023-09-19T08:11:27;97355.88;;;19.86;87.59
50774;BME280;36745;48.544;8.918;2023-09-19T08:14:50;97351.28;;;20.53;90.37
50774;BME280;36745;48.544;8.918;2023-09-19T08:18:10;97344.69;;;21.40;89.83
50774;BME280;36745;48.544;8.918;2023-09-19T08:21:32;97356.63;;;21.63;87.68
50774;BME280;36745;48.544;8.918;2023-09-19T08:24:52;97358.44;;;21.44;84.05
50774;BME280;36745;48.544;8.918;2023-09-19T08:28:11;97361.28;;;21.21;79.93
50774;BME280;36745;48.544;8.918;2023-09-19T08:31:33;97361.00;;;21.53;82.20
50774;BME280;36745;48.544;8.918;2023-09-19T08:34:53;97367.06;;;21.68;78.60
50774;BME280;36745;48.544;8.918;2023-09-19T08:38:13;97375.44;;;21.96;74.95
50774;BME280;36745;48.544;8.918;2023-09-19T08:41:33;97365.38;;;22.23;72.78
50774;BME280;36745;48.544;8.918;2023-09-19T08:44:55;97369.13;;;22.36;70.85
50774;BME280;36745;48.544;8.918;2023-09-19T08:48:26;97378.34;;;22.83;69.69
50774;BME280;36745;48.544;8.918;2023-09-19T08:51:48;97380.88;;;22.87;69.21
50774;BME280;36745;48.544;8.918;2023-09-19T08:55:14;97378.34;;;22.83;66.84
50774;BME280;36745;48.544;8.918;2023-09-19T08:59:02;97384.06;;;22.61;66.82
50774;BME280;36745;48.544;8.918;2023-09-19T09:02:22;97386.34;;;23.09;65.41
50774;BME280;36745;48.544;8.918;2023-09-19T09:05:43;97381.41;;;23.45;65.29
50774;BME280;36745;48.544;8.918;2023-09-19T09:09:05;97378.81;;;23.77;60.48
50774;BME280;36745;48.544;8.918;2023-09-19T09:12:25;97368.66;;;23.93;60.80
50774;BME280;36745;48.544;8.918;2023-09-19T09:15:46;97384.31;;;24.55;60.83
50774;BME280;36745;48.544;8.918;2023-09-19T09:19:06;97386.97;;;23.56;58.29
50774;BME280;36745;48.544;8.918;2023-09-19T09:22:26;97388.16;;;23.91;60.12
50774;BME280;36745;48.544;8.918;2023-09-19T09:25:50;97384.03;;;23.92;57.65
50774;BME280;36745;48.544;8.918;2023-09-19T09:29:13;97395.53;;;23.69;57.55
50774;BME280;36745;48.544;8.918;2023-09-19T09:32:33;97379.78;;;24.04;58.37
50774;BME280;36745;48.544;8.918;2023-09-19T09:39:30;97372.41;;;23.76;58.27
50774;BME280;36745;48.544;8.918;2023-09-19T09:43:29;97380.97;;;23.65;59.48
50774;BME280;36745;48.544;8.918;2023-09-19T09:46:49;97380.81;;;23.58;57.30
50774;BME280;36745;48.544;8.918;2023-09-19T09:50:10;97380.44;;;23.42;57.45
50774;BME280;36745;48.544;8.918;2023-09-19T09:53:37;97379.16;;;22.73;55.19
50774;BME280;36745;48.544;8.918;2023-09-19T09:56:59;97374.69;;;21.95;55.60
50774;BME280;36745;48.544;8.918;2023-09-19T10:00:19;97374.75;;;21.62;56.83
50774;BME280;36745;48.544;8.918;2023-09-19T10:03:40;97382.91;;;21.49;57.61
50774;BME280;36745;48.544;8.918;2023-09-19T10:07:03;97380.63;;;21.53;58.11
50774;BME280;36745;48.544;8.918;2023-09-19T10:10:35;97386.47;;;21.55;58.45
50774;BME280;36745;48.544;8.918;2023-09-19T10:14:03;97381.91;;;21.52;57.86
50774;BME280;36745;48.544;8.918;2023-09-19T10:17:25;97379.88;;;21.35;56.91
50774;BME280;36745;48.544;8.918;2023-09-19T10:20:46;97369.13;;;20.95;57.46
50774;BME280;36745;48.544;8.918;2023-09-19T10:24:08;97377.53;;;20.89;57.33
50774;BME280;36745;48.544;8.918;2023-09-19T10:27:29;97375.25;;;20.66;57.51
50774;BME280;36745;48.544;8.918;2023-09-19T10:30:52;97388.34;;;20.26;57.37
50774;BME280;36745;48.544;8.918;2023-09-19T10:34:12;97379.16;;;20.20;57.37
50774;BME280;36745;48.544;8.918;2023-09-19T10:37:34;97369.00;;;20.28;58.41
50774;BME280;36745;48.544;8.918;2023-09-19T10:40:57;97360.94;;;20.52;59.09
50774;BME280;36745;48.544;8.918;2023-09-19T10:44:23;97365.56;;;20.61;58.84
50774;BME280;36745;48.544;8.918;2023-09-19T10:47:43;97372.19;;;20.75;59.89
50774;BME280;36745;48.544;8.918;2023-09-19T10:51:10;97367.38;;;21.03;59.97
50774;BME280;36745;48.544;8.918;2023-09-19T10:54:33;97368.41;;;21.22;59.79
50774;BME280;36745;48.544;8.918;2023-09-19T10:57:56;97368.38;;;21.50;59.73
50774;BME280;36745;48.544;8.918;2023-09-19T11:01:17;97372.72;;;21.46;58.84
50774;BME280;36745;48.544;8.918;2023-09-19T11:04:38;97364.81;;;21.39;57.70
50774;BME280;36745;48.544;8.918;2023-09-19T11:07:58;97361.78;;;21.42;57.67
50774;BME280;36745;48.544;8.918;2023-09-19T11:14:59;97351.25;;;21.70;57.95
50774;BME280;36745;48.544;8.918;2023-09-19T11:22:00;97347.84;;;22.05;57.59
50774;BME280;36745;48.544;8.918;2023-09-19T11:29:25;97340.50;;;21.97;56.44
50774;BME280;36745;48.544;8.918;2023-09-19T11:33:26;97334.63;;;21.95;57.07
50774;BME280;36745;48.544;8.918;2023-09-19T11:36:53;97347.75;;;22.22;57.10
50774;BME280;36745;48.544;8.918;2023-09-19T11:40:13;97344.84;;;22.44;57.18
50774;BME280;36745;48.544;8.918;2023-09-19T11:43:36;97342.22;;;22.52;56.00
50774;BME280;36745;48.544;8.918;2023-09-19T11:47:00;97340.03;;;22.80;57.28
50774;BME280;36745;48.544;8.918;2023-09-19T11:50:23;97336.03;;;23.00;56.46
50774;BME280;36745;48.544;8.918;2023-09-19T11:53:43;97329.66;;;22.99;55.12
50774;BME280;36745;48.544;8.918;2023-09-19T11:57:04;97321.59;;;23.15;55.75
50774;BME280;36745;48.544;8.918;2023-09-19T12:00:25;97319.72;;;23.23;54.90
50774;BME280;36745;48.544;8.918;2023-09-19T12:03:47;97313.44;;;23.11;54.50
50774;BME280;36745;48.544;8.918;2023-09-19T12:07:15;97315.72;;;23.13;53.39
50774;BME280;36745;48.544;8.918;2023-09-19T12:10:48;97304.69;;;23.20;54.52
50774;BME280;36745;48.544;8.918;2023-09-19T12:14:08;97306.47;;;23.18;52.99
50774;BME280;36745;48.544;8.918;2023-09-19T12:17:38;97317.16;;;22.95;52.72
50774;BME280;36745;48.544;8.918;2023-09-19T12:21:00;97323.34;;;23.18;54.26
50774;BME280;36745;48.544;8.918;2023-09-19T12:24:22;97318.06;;;23.09;52.87
50774;BME280;36745;48.544;8.918;2023-09-19T12:27:46;97295.06;;;22.80;52.62
50774;BME280;36745;48.544;8.918;2023-09-19T12:31:07;97301.38;;;22.51;52.27
50774;BME280;36745;48.544;8.918;2023-09-19T12:34:28;97297.44;;;22.65;53.09
50774;BME280;36745;48.544;8.918;2023-09-19T12:37:52;97305.00;;;22.81;53.31
50774;BME280;36745;48.544;8.918;2023-09-19T12:41:14;97292.88;;;22.97;53.16
50774;BME280;36745;48.544;8.918;2023-09-19T12:44:36;97295.41;;;22.66;53.02
50774;BME280;36745;48.544;8.918;2023-09-19T12:48:22;97294.13;;;22.72;53.86
50774;BME280;36745;48.544;8.918;2023-09-19T12:51:49;97290.63;;;22.55;52.66
50774;BME280;36745;48.544;8.918;2023-09-19T12:55:23;97292.47;;;22.47;52.41
50774;BME280;36745;48.544;8.918;2023-09-19T12:58:53;97296.13;;;22.31;52.35
50774;BME280;36745;48.544;8.918;2023-09-19T13:02:13;97298.94;;;22.31;52.24
50774;BME280;36745;48.544;8.918;2023-09-19T13:09:21;97288.63;;;22.03;51.72
50774;BME280;36745;48.544;8.918;2023-09-19T13:12:41;97288.94;;;21.94;51.84
50774;BME280;36745;48.544;8.918;2023-09-19T13:16:04;97294.03;;;21.90;51.93
50774;BME280;36745;48.544;8.918;2023-09-19T13:19:39;97295.56;;;21.97;51.92
50774;BME280;36745;48.544;8.918;2023-09-19T13:23:05;97282.75;;;22.07;52.10
50774;BME280;36745;48.544;8.918;2023-09-19T13:26:29;97279.97;;;22.01;51.91
50774;BME280;36745;48.544;8.918;2023-09-19T13:29:49;97276.13;;;22.04;52.24
50774;BME280;36745;48.544;8.918;2023-09-19T13:33:10;97269.25;;;22.00;51.81
50774;BME280;36745;48.544;8.918;2023-09-19T13:36:30;97276.44;;;21.90;51.75
50774;BME280;36745;48.544;8.918;2023-09-19T13:39:50;97268.03;;;21.84;51.27
50774;BME280;36745;48.544;8.918;2023-09-19T13:43:10;97268.53;;;21.88;51.76
50774;BME280;36745;48.544;8.918;2023-09-19T13:46:31;97265.97;;;21.90;52.07
50774;BME280;36745;48.544;8.918;2023-09-19T13:49:54;97262.63;;;21.92;51.74
50774;BME280;36745;48.544;8.918;2023-09-19T13:53:14;97258.56;;;21.87;51.64
50774;BME280;36745;48.544;8.918;2023-09-19T13:56:33;97259.09;;;21.91;52.34
50774;BME280;36745;48.544;8.918;2023-09-19T13:59:53;97256.28;;;21.97;52.09
50774;BME280;36745;48.544;8.918;2023-09-19T14:03:13;97252.72;;;21.96;51.96
50774;BME280;36745;48.544;8.918;2023-09-19T14:06:33;97252.94;;;21.93;52.03
50774;BME280;36745;48.544;8.918;2023-09-19T14:09:53;97254.81;;;21.79;51.80
50774;BME280;36745;48.544;8.918;2023-09-19T14:13:12;97252.25;;;21.75;52.14
50774;BME280;36745;48.544;8.918;2023-09-19T14:16:32;97252.22;;;21.81;52.30
50774;BME280;36745;48.544;8.918;2023-09-19T14:19:52;97258.06;;;21.94;51.72
50774;BME280;36745;48.544;8.918;2023-09-19T14:23:12;97260.34;;;21.90;52.01
50774;BME280;36745;48.544;8.918;2023-09-19T14:26:32;97257.00;;;21.92;52.01
50774;BME280;36745;48.544;8.918;2023-09-19T14:29:52;97248.84;;;21.94;51.85
50774;BME280;36745;48.544;8.918;2023-09-19T14:33:12;97252.72;;;21.96;51.90
50774;BME280;36745;48.544;8.918;2023-09-19T14:36:32;97244.50;;;21.98;52.02
50774;BME280;36745;48.544;8.918;2023-09-19T14:39:52;97236.06;;;22.04;51.92
50774;BME280;36745;48.544;8.918;2023-09-19T14:43:12;97237.63;;;21.99;51.66
50774;BME280;36745;48.544;8.918;2023-09-19T14:46:32;97229.22;;;21.88;51.39
50774;BME280;36745;48.544;8.918;2023-09-19T14:49:52;97218.00;;;21.88;51.79
50774;BME280;36745;48.544;8.918;2023-09-19T14:53:12;97222.38;;;21.84;51.55
50774;BME280;36745;48.544;8.918;2023-09-19T14:56:31;97221.94;;;21.68;51.75
50774;BME280;36745;48.544;8.918;2023-09-19T14:59:51;97222.66;;;21.80;51.79
50774;BME280;36745;48.544;8.918;2023-09-19T15:03:11;97216.53;;;21.76;51.94
50774;BME280;36745;48.544;8.918;2023-09-19T15:06:31;97202.28;;;21.74;51.82
50774;BME280;36745;48.544;8.918;2023-09-19T15:09:51;97210.97;;;21.65;51.60
50774;BME280;36745;48.544;8.918;2023-09-19T15:13:10;97214.09;;;21.56;51.49
50774;BME280;36745;48.544;8.918;2023-09-19T15:16:30;97212.50;;;21.66;51.78
50774;BME280;36745;48.544;8.918;2023-09-19T15:19:52;97211.50;;;21.69;51.83
50774;BME280;36745;48.544;8.918;2023-09-19T15:23:12;97211.97;;;21.73;51.85
50774;BME280;36745;48.544;8.918;2023-09-19T15:26:32;97213.50;;;21.74;51.71
50774;BME280;36745;48.544;8.918;2023-09-19T15:29:52;97215.50;;;21.79;52.01
50774;BME280;36745;48.544;8.918;2023-09-19T15:33:11;97215.84;;;21.64;51.84
50774;BME280;36745;48.544;8.918;2023-09-19T15:36:31;97217.16;;;21.58;51.92
50774;BME280;36745;48.544;8.918;2023-09-19T15:39:51;97207.50;;;21.48;51.89
50774;BME280;36745;48.544;8.918;2023-09-19T15:43:11;97214.63;;;21.49;51.83
50774;BME280;36745;48.544;8.918;2023-09-19T15:46:32;97212.59;;;21.44;52.13
50774;BME280;36745;48.544;8.918;2023-09-19T15:49:55;97209.09;;;21.38;51.85
50774;BME280;36745;48.544;8.918;2023-09-19T15:53:15;97206.53;;;21.28;51.79
50774;BME280;36745;48.544;8.918;2023-09-19T15:56:36;97199.97;;;21.20;51.87
50774;BME280;36745;48.544;8.918;2023-09-19T15:59:56;97196.38;;;21.25;51.90
50774;BME280;36745;48.544;8.918;2023-09-19T16:03:16;97197.38;;;21.22;51.93
50774;BME280;36745;48.544;8.918;2023-09-19T16:06:37;97196.91;;;21.07;52.08
50774;BME280;36745;48.544;8.918;2023-09-19T16:09:57;97193.09;;;21.05;52.45
50774;BME280;36745;48.544;8.918;2023-09-19T16:13:19;97192.34;;;20.99;52.13
50774;BME280;36745;48.544;8.918;2023-09-19T16:16:38;97192.88;;;20.91;52.59
50774;BME280;36745;48.544;8.918;2023-09-19T16:19:58;97183.19;;;20.87;52.74
50774;BME280;36745;48.544;8.918;2023-09-19T16:23:18;97183.72;;;20.80;52.94
50774;BME280;36745;48.544;8.918;2023-09-19T16:26:39;97188.81;;;20.76;52.91
50774;BME280;36745;48.544;8.918;2023-09-19T16:29:59;97188.84;;;20.65;53.31
50774;BME280;36745;48.544;8.918;2023-09-19T16:33:19;97186.31;;;20.56;53.91
50774;BME280;36745;48.544;8.918;2023-09-19T16:36:39;97181.72;;;20.41;54.21
50774;BME280;36745;48.544;8.918;2023-09-19T16:39:58;97179.69;;;20.36;54.30
50774;BME280;36745;48.544;8.918;2023-09-19T16:43:19;97173.06;;;20.28;54.34
50774;BME280;36745;48.544;8.918;2023-09-19T16:46:40;97184.25;;;20.17;54.81
50774;BME280;36745;48.544;8.918;2023-09-19T16:50:00;97189.34;;;20.13;54.52
50774;BME280;36745;48.544;8.918;2023-09-19T16:53:20;97188.56;;;20.01;54.80
50774;BME280;36745;48.544;8.918;2023-09-19T16:56:40;97183.94;;;19.93;55.07
50774;BME280;36745;48.544;8.918;2023-09-19T17:00:00;97188.75;;;19.81;55.70
50774;BME280;36745;48.544;8.918;2023-09-19T17:03:20;97184.66;;;19.71;55.80
50774;BME280;36745;48.544;8.918;2023-09-19T17:06:39;97187.69;;;19.56;56.27
50774;BME280;36745;48.544;8.918;2023-09-19T17:09:59;97184.56;;;19.43;56.87
50774;BME280;36745;48.544;8.918;2023-09-19T17:13:19;97184.53;;;19.32;56.58
50774;BME280;36745;48.544;8.918;2023-09-19T17:16:39;97193.66;;;19.27;57.14
50774;BME280;36745;48.544;8.918;2023-09-19T17:20:01;97207.53;;;19.10;57.52
50774;BME280;36745;48.544;8.918;2023-09-19T17:23:21;97205.50;;;19.05;58.10
50774;BME280;36745;48.544;8.918;2023-09-19T17:26:40;97205.47;;;19.00;58.07
50774;BME280;36745;48.544;8.918;2023-09-19T17:30:02;97206.38;;;18.85;58.89
50774;BME280;36745;48.544;8.918;2023-09-19T17:33:22;97203.00;;;18.76;59.42
50774;BME280;36745;48.544;8.918;2023-09-19T17:36:42;97202.13;;;18.59;60.16
50774;BME280;36745;48.544;8.918;2023-09-19T17:40:02;97206.31;;;18.43;60.87
50774;BME280;36745;48.544;8.918;2023-09-19T17:43:24;97203.69;;;18.34;61.03
50774;BME280;36745;48.544;8.918;2023-09-19T17:46:44;97210.16;;;18.20;61.36
50774;BME280;36745;48.544;8.918;2023-09-19T17:50:04;97206.56;;;18.14;61.05
50774;BME280;36745;48.544;8.918;2023-09-19T17:53:25;97208.25;;;18.06;60.61
50774;BME280;36745;48.544;8.918;2023-09-19T17:56:44;97205.78;;;17.87;61.56
50774;BME280;36745;48.544;8.918;2023-09-19T18:00:05;97211.81;;;17.80;61.82
50774;BME280;36745;48.544;8.918;2023-09-19T18:03:27;97212.53;;;17.75;62.02
50774;BME280;36745;48.544;8.918;2023-09-19T18:06:49;97211.41;;;17.67;61.65